createdAt,value
2023-01-17T00:01:29.468Z,3.90
2023-01-17T00:04:14.226Z,6.63
2023-01-17T00:06:58.900Z,3.03
2023-01-17T00:09:44.370Z,2.88
2023-01-17T00:12:10.769Z,4.18
2023-01-17T00:14:37.194Z,3.38
2023-01-17T00:17:03.682Z,2.38
2023-01-17T00:19:48.690Z,4.60
2023-01-17T00:22:42.075Z,2.88
2023-01-17T00:25:31.985Z,2.42
2023-01-17T00:28:01.423Z,4.60
2023-01-17T00:30:30.959Z,3.40
2023-01-17T00:33:00.377Z,6.43
2023-01-17T00:35:32.127Z,3.25
2023-01-17T00:38:05.564Z,2.78
2023-01-17T00:40:36.748Z,7.68
2023-01-17T00:46:07.880Z,4.32
2023-01-17T00:48:53.626Z,2.28
2023-01-17T00:51:39.466Z,2.17
2023-01-17T00:54:25.163Z,4.32
2023-01-17T00:57:10.947Z,1.30
2023-01-17T00:59:56.250Z,2.03
2023-01-17T01:02:41.525Z,2.65
2023-01-17T01:05:27.320Z,0.70
2023-01-17T01:08:11.924Z,1.35
2023-01-17T01:10:57.213Z,0.60
2023-01-17T01:13:44.515Z,5.25
2023-01-17T01:16:29.726Z,0.93
2023-01-17T01:19:15.174Z,2.03
2023-01-17T01:22:00.296Z,2.42
2023-01-17T01:24:45.497Z,3.10
2023-01-17T01:27:30.844Z,2.60
2023-01-17T01:30:16.184Z,3.03
2023-01-17T01:33:01.427Z,0.57
2023-01-17T01:35:27.986Z,1.00
2023-01-17T01:37:54.358Z,2.08
2023-01-17T01:40:21.380Z,0.82
2023-01-17T01:42:52.423Z,2.78
2023-01-17T01:45:25.257Z,0.85
2023-01-17T01:47:57.532Z,1.30
2023-01-17T01:50:24.151Z,2.05
2023-01-17T01:52:55.989Z,2.90
2023-01-17T01:55:31.933Z,0.55
2023-01-17T01:58:03.963Z,0.73
2023-01-17T02:00:35.100Z,2.70
2023-01-17T02:03:14.952Z,2.25
2023-01-17T02:05:43.550Z,2.67
2023-01-17T02:08:15.925Z,3.63
2023-01-17T02:10:44.086Z,1.15
2023-01-17T02:13:11.630Z,3.05
2023-01-17T02:16:15.542Z,1.05
2023-01-17T02:19:03.707Z,5.10
2023-01-17T02:21:45.116Z,4.43
2023-01-17T02:24:14.351Z,2.47
2023-01-17T02:26:52.923Z,1.48
2023-01-17T02:29:31.460Z,2.95
2023-01-17T02:32:10.359Z,1.67
2023-01-17T02:35:04.763Z,3.10
2023-01-17T02:37:44.115Z,3.83
2023-01-17T02:40:18.998Z,2.97
2023-01-17T02:42:57.993Z,2.38
2023-01-17T02:45:24.417Z,1.58
2023-01-17T02:47:50.771Z,5.28
2023-01-17T02:50:21.810Z,2.70
2023-01-17T02:53:09.034Z,1.25
2023-01-17T02:55:52.293Z,4.95
2023-01-17T02:58:37.299Z,4.60
2023-01-17T03:01:10.890Z,1.98
2023-01-17T03:04:00.460Z,3.17
2023-01-17T03:06:32.628Z,2.88
2023-01-17T03:08:59.098Z,6.22
2023-01-17T03:11:27.154Z,3.97
2023-01-17T03:13:57.568Z,2.83
2023-01-17T03:16:26.400Z,3.85
2023-01-17T03:18:53.862Z,4.22
2023-01-17T03:21:21.672Z,2.25
2023-01-17T03:23:48.115Z,3.13
2023-01-17T03:26:15.094Z,2.00
2023-01-17T03:28:41.668Z,4.50
2023-01-17T03:31:08.322Z,3.67
2023-01-17T03:33:35.478Z,3.83
2023-01-17T03:36:01.846Z,5.75
2023-01-17T03:38:29.328Z,1.98
2023-01-17T03:40:55.838Z,3.72
2023-01-17T03:43:22.298Z,1.55
2023-01-17T03:45:50.196Z,5.45
2023-01-17T03:48:16.656Z,4.47
2023-01-17T03:50:43.163Z,2.03
2023-01-17T03:53:09.518Z,4.65
2023-01-17T03:55:35.875Z,4.15
2023-01-17T03:58:02.269Z,3.03
2023-01-17T04:00:28.795Z,2.83
2023-01-17T04:02:55.203Z,3.42
2023-01-17T04:05:21.610Z,3.67
2023-01-17T04:07:48.048Z,4.13
2023-01-17T04:10:14.879Z,2.78
2023-01-17T04:12:41.617Z,1.70
2023-01-17T04:15:08.149Z,4.15
2023-01-17T04:17:35.254Z,3.72
2023-01-17T04:20:01.829Z,3.75
2023-01-17T04:22:28.477Z,2.30
2023-01-17T04:24:54.886Z,4.55
2023-01-17T04:27:21.299Z,3.53
2023-01-17T04:29:47.791Z,4.38
2023-01-17T04:32:14.824Z,1.90
2023-01-17T04:34:41.479Z,2.38
2023-01-17T04:37:07.915Z,6.45
2023-01-17T04:39:34.672Z,5.35
2023-01-17T04:42:01.128Z,2.97
2023-01-17T04:44:27.525Z,2.88
2023-01-17T04:46:53.998Z,4.53
2023-01-17T04:49:20.464Z,2.95
2023-01-17T04:51:46.887Z,1.50
2023-01-17T04:54:13.346Z,3.08
2023-01-17T04:56:39.747Z,3.67
2023-01-17T04:59:06.203Z,2.70
2023-01-17T05:01:32.684Z,4.90
2023-01-17T05:03:59.127Z,2.30
2023-01-17T05:06:25.547Z,2.03
2023-01-17T05:08:52.002Z,3.15
2023-01-17T05:11:18.684Z,7.53
2023-01-17T05:13:47.970Z,3.40
2023-01-17T05:16:17.118Z,3.67
2023-01-17T05:18:43.474Z,1.58
2023-01-17T05:21:10.054Z,5.53
2023-01-17T05:23:36.558Z,4.10
2023-01-17T05:26:02.920Z,5.13
2023-01-17T05:28:29.361Z,2.60
2023-01-17T05:30:56.108Z,5.68
2023-01-17T05:33:22.558Z,2.42
2023-01-17T05:35:48.972Z,3.90
2023-01-17T05:38:15.449Z,4.97
2023-01-17T05:40:42.178Z,3.65
2023-01-17T05:43:08.869Z,5.10
2023-01-17T05:45:35.674Z,1.67
2023-01-17T05:48:03.054Z,3.90
2023-01-17T05:50:34.109Z,4.30
2023-01-17T05:53:03.759Z,4.72
2023-01-17T05:55:31.695Z,5.28
2023-01-17T05:57:58.945Z,2.28
2023-01-17T06:00:25.655Z,3.97
2023-01-17T06:02:56.521Z,3.78
2023-01-17T06:05:24.185Z,3.13
2023-01-17T06:07:50.883Z,8.50
2023-01-17T06:10:19.341Z,6.90
2023-01-17T06:12:46.284Z,5.03
2023-01-17T06:15:14.225Z,7.20
2023-01-17T06:17:40.996Z,7.15
2023-01-17T06:20:09.271Z,4.53
2023-01-17T06:22:35.876Z,7.82
2023-01-17T06:25:02.280Z,8.68
2023-01-17T06:27:28.882Z,6.18
2023-01-17T06:29:55.401Z,5.70
2023-01-17T06:32:21.874Z,4.88
2023-01-17T06:34:48.224Z,10.02
2023-01-17T06:37:14.629Z,7.38
2023-01-17T06:39:41.143Z,7.72
2023-01-17T06:42:07.566Z,5.97
2023-01-17T06:44:34.057Z,9.05
2023-01-17T06:47:00.476Z,8.43
2023-01-17T06:49:27.085Z,6.32
2023-01-17T06:51:53.540Z,5.97
2023-01-17T06:54:20.056Z,9.05
2023-01-17T06:56:46.415Z,11.02
2023-01-17T06:59:12.958Z,5.65
2023-01-17T07:01:39.815Z,7.22
2023-01-17T07:04:06.389Z,9.88
2023-01-17T07:06:34.974Z,11.45
2023-01-17T07:09:01.447Z,10.13
2023-01-17T07:11:27.857Z,11.73
2023-01-17T07:13:54.301Z,9.02
2023-01-17T07:16:20.996Z,12.90
2023-01-17T07:18:47.413Z,11.63
2023-01-17T07:21:15.216Z,7.40
2023-01-17T07:23:41.941Z,7.78
2023-01-17T07:26:08.397Z,12.98
2023-01-17T07:28:35.053Z,14.27
2023-01-17T07:31:08.463Z,9.60
2023-01-17T07:33:35.665Z,8.60
2023-01-17T07:36:09.319Z,7.88
2023-01-17T07:38:36.225Z,8.95
2023-01-17T07:41:03.161Z,13.85
2023-01-17T07:43:29.659Z,7.22
2023-01-17T07:45:56.300Z,9.05
2023-01-17T07:48:24.501Z,9.57
2023-01-17T07:50:56.182Z,9.70
2023-01-17T07:53:33.616Z,8.30
2023-01-17T07:56:02.583Z,8.65
2023-01-17T07:58:28.937Z,10.75
2023-01-17T08:01:03.537Z,13.63
2023-01-17T08:03:35.780Z,10.77
2023-01-17T08:06:02.894Z,10.25
2023-01-17T08:08:29.525Z,11.05
2023-01-17T08:10:56.163Z,8.65
2023-01-17T08:13:22.903Z,11.73
2023-01-17T08:15:49.976Z,8.82
2023-01-17T08:18:17.615Z,13.35
2023-01-17T08:20:44.945Z,9.70
2023-01-17T08:23:11.861Z,6.22
2023-01-17T08:25:38.951Z,7.38
2023-01-17T08:28:05.581Z,11.68
2023-01-17T08:30:32.175Z,5.55
2023-01-17T08:32:58.579Z,9.40
2023-01-17T08:35:25.033Z,5.53
2023-01-17T08:37:54.648Z,4.80
2023-01-17T08:40:21.527Z,9.68
2023-01-17T08:42:55.737Z,4.55
2023-01-17T08:45:22.177Z,10.30
2023-01-17T08:47:48.544Z,8.05
2023-01-17T08:50:15.581Z,7.25
2023-01-17T08:52:41.942Z,9.65
2023-01-17T08:55:10.230Z,6.55
2023-01-17T08:57:36.602Z,7.95
2023-01-17T09:00:03.429Z,5.03
2023-01-17T09:02:29.866Z,4.35
2023-01-17T09:04:56.237Z,9.23
2023-01-17T09:07:24.305Z,4.85
2023-01-17T09:09:52.643Z,4.45
2023-01-17T09:12:20.180Z,9.60
2023-01-17T09:14:46.682Z,4.75
2023-01-17T09:17:14.566Z,5.70
2023-01-17T09:19:46.548Z,7.15
2023-01-17T09:22:12.983Z,6.47
2023-01-17T09:24:39.575Z,6.40
2023-01-17T09:27:06.922Z,8.00
2023-01-17T09:29:33.509Z,10.40
2023-01-17T09:32:00.913Z,7.28
2023-01-17T09:34:27.339Z,9.65
2023-01-17T09:36:53.775Z,4.07
2023-01-17T09:39:20.310Z,4.45
2023-01-17T09:42:17.383Z,7.63
2023-01-17T09:44:46.025Z,4.90
2023-01-17T09:47:32.936Z,6.32
2023-01-17T09:50:27.145Z,5.07
2023-01-17T09:53:01.215Z,5.40
2023-01-17T09:55:43.896Z,5.40
2023-01-17T09:58:18.805Z,7.47
2023-01-17T10:01:22.728Z,9.32
2023-01-17T10:04:18.235Z,6.45
2023-01-17T10:07:11.385Z,5.88
2023-01-17T10:09:56.578Z,5.25
2023-01-17T10:13:01.991Z,5.55
2023-01-17T10:15:31.327Z,10.27
2023-01-17T10:18:28.915Z,9.25
2023-01-17T10:20:56.232Z,6.63
2023-01-17T10:23:46.443Z,8.73
2023-01-17T10:26:23.672Z,9.25
2023-01-17T10:28:53.060Z,4.57
2023-01-17T10:31:23.645Z,9.35
2023-01-17T10:33:52.755Z,8.35
2023-01-17T10:36:23.400Z,11.48
2023-01-17T10:39:00.728Z,10.25
2023-01-17T10:41:36.741Z,7.32
2023-01-17T10:44:27.391Z,13.27
2023-01-17T10:47:18.533Z,9.05
2023-01-17T10:49:49.002Z,9.38
2023-01-17T10:52:23.621Z,12.35
2023-01-17T10:55:17.924Z,8.48
2023-01-17T10:57:47.249Z,8.63
2023-01-17T11:00:39.858Z,10.38
2023-01-17T11:03:06.774Z,10.90
2023-01-17T11:05:34.159Z,9.45
2023-01-17T11:08:07.787Z,9.73
2023-01-17T11:10:47.126Z,9.88
2023-01-17T11:13:19.284Z,8.63
2023-01-17T11:15:49.879Z,11.02
2023-01-17T11:18:19.593Z,7.95
2023-01-17T11:20:46.304Z,10.00
2023-01-17T11:23:15.635Z,11.07
2023-01-17T11:25:55.448Z,12.80
2023-01-17T11:28:26.182Z,11.88
2023-01-17T11:30:55.912Z,10.38
2023-01-17T11:33:56.527Z,10.57
2023-01-17T11:36:30.950Z,8.88
2023-01-17T11:39:03.586Z,12.23
2023-01-17T11:41:39.076Z,10.38
2023-01-17T11:44:29.119Z,12.70
2023-01-17T11:49:35.695Z,8.82
2023-01-17T11:52:09.075Z,10.15
2023-01-17T11:54:39.611Z,10.68
2023-01-17T11:57:16.561Z,9.80
2023-01-17T11:59:44.189Z,12.30
2023-01-17T12:02:57.017Z,10.52
2023-01-17T12:05:51.464Z,9.95
2023-01-17T12:08:23.987Z,11.27
2023-01-17T12:10:53.288Z,10.45
2023-01-17T12:13:49.931Z,8.30
2023-01-17T12:16:45.373Z,10.63
2023-01-17T12:19:41.160Z,10.32
2023-01-17T12:22:29.708Z,9.98
2023-01-17T12:25:06.965Z,10.93
2023-01-17T12:27:55.558Z,11.13
2023-01-17T12:30:30.721Z,10.65
2023-01-17T12:33:21.947Z,8.93
2023-01-17T12:36:02.195Z,10.07
2023-01-17T12:38:35.605Z,10.88
2023-01-17T12:41:07.090Z,7.40
2023-01-17T12:43:37.283Z,6.78
2023-01-17T12:46:28.236Z,6.65
2023-01-17T12:49:02.892Z,5.30
2023-01-17T12:51:41.211Z,6.78
2023-01-17T12:54:28.826Z,6.80
2023-01-17T12:57:02.405Z,6.93
2023-01-17T12:59:40.353Z,6.47
2023-01-17T13:02:36.106Z,5.85
2023-01-17T13:05:18.429Z,5.38
2023-01-17T13:08:01.900Z,6.65
2023-01-17T13:10:35.762Z,7.50
2023-01-17T13:13:16.555Z,5.05
2023-01-17T13:15:43.221Z,6.93
2023-01-17T13:18:15.496Z,4.35
2023-01-17T13:20:47.874Z,5.65
2023-01-17T13:23:29.939Z,5.47
2023-01-17T13:25:58.894Z,4.38
2023-01-17T13:28:28.087Z,4.20
2023-01-17T13:31:16.057Z,4.45
2023-01-17T13:34:14.779Z,3.05
2023-01-17T13:36:57.681Z,3.13
2023-01-17T13:39:29.584Z,3.88
2023-01-17T13:42:11.655Z,3.40
2023-01-17T13:44:38.130Z,4.20
2023-01-17T13:47:06.652Z,4.07
2023-01-17T13:49:43.374Z,3.50
2023-01-17T13:52:33.859Z,4.28
2023-01-17T13:55:07.041Z,3.03
2023-01-17T13:57:41.889Z,5.20
2023-01-17T14:00:21.713Z,5.05
2023-01-17T14:02:52.637Z,3.97
2023-01-17T14:05:22.067Z,3.83
2023-01-17T14:08:05.079Z,2.38
2023-01-17T14:10:46.160Z,3.05
2023-01-17T14:13:36.274Z,3.50
2023-01-17T14:16:22.821Z,5.03
2023-01-17T14:18:49.869Z,4.25
2023-01-17T14:21:28.463Z,3.33
2023-01-17T14:24:10.396Z,3.00
2023-01-17T14:26:43.789Z,3.53
2023-01-17T14:29:46.386Z,6.03
2023-01-17T14:32:16.375Z,5.40
2023-01-17T14:34:44.870Z,5.75
2023-01-17T14:37:40.685Z,4.18
2023-01-17T14:40:30.395Z,3.35
2023-01-17T14:43:15.693Z,3.67
2023-01-17T14:45:43.526Z,6.75
2023-01-17T14:48:17.853Z,8.02
2023-01-17T14:50:46.206Z,6.95
2023-01-17T14:53:12.636Z,3.55
2023-01-17T14:55:48.064Z,5.13
2023-01-17T14:58:19.159Z,4.43
2023-01-17T15:00:46.513Z,4.70
2023-01-17T15:03:15.746Z,4.07
2023-01-17T15:05:46.527Z,5.20
2023-01-17T15:08:15.648Z,7.18
2023-01-17T15:10:56.205Z,9.05
2023-01-17T15:13:43.420Z,6.78
2023-01-17T15:16:31.019Z,4.63
2023-01-17T15:18:57.849Z,8.80
2023-01-17T15:21:27.941Z,4.00
2023-01-17T15:23:57.775Z,3.88
2023-01-17T15:26:26.861Z,6.75
2023-01-17T15:29:00.085Z,4.38
2023-01-17T15:31:40.980Z,5.13
2023-01-17T15:34:12.110Z,6.43
2023-01-17T15:36:39.085Z,6.18
2023-01-17T15:39:18.822Z,6.60
2023-01-17T15:41:45.200Z,4.38
2023-01-17T15:44:47.137Z,5.13
2023-01-17T15:47:33.844Z,4.25
2023-01-17T15:50:02.532Z,6.95
2023-01-17T15:52:29.278Z,4.47
2023-01-17T15:55:12.442Z,6.22
2023-01-17T15:57:39.627Z,6.15
2023-01-17T16:00:20.905Z,5.82
2023-01-17T16:02:55.238Z,4.28
2023-01-17T16:05:21.896Z,6.88
2023-01-17T16:08:08.566Z,5.07
2023-01-17T16:10:37.802Z,6.32
2023-01-17T16:13:06.202Z,8.55
2023-01-17T16:15:37.872Z,8.50
2023-01-17T16:18:10.013Z,9.23
2023-01-17T16:20:44.271Z,11.95
2023-01-17T16:23:10.752Z,9.68
2023-01-17T16:25:37.884Z,10.23
2023-01-17T16:28:05.463Z,7.70
2023-01-17T16:30:32.857Z,7.13
2023-01-17T16:32:59.470Z,4.93
2023-01-17T16:35:29.983Z,3.90
2023-01-17T16:38:05.350Z,5.00
2023-01-17T16:40:37.950Z,5.15
2023-01-17T16:43:04.370Z,4.40
2023-01-17T16:45:30.837Z,3.97
2023-01-17T16:47:57.242Z,3.80
2023-01-17T16:50:24.908Z,4.85
2023-01-17T16:52:52.978Z,5.72
2023-01-17T16:55:22.220Z,4.35
2023-01-17T16:57:49.733Z,3.55
2023-01-17T17:00:17.341Z,6.03
2023-01-17T17:02:44.001Z,6.63
2023-01-17T17:05:10.961Z,4.35
2023-01-17T17:07:44.110Z,7.88
2023-01-17T17:10:11.606Z,7.78
2023-01-17T17:12:38.058Z,9.27
2023-01-17T17:15:05.426Z,9.02
2023-01-17T17:17:42.246Z,6.68
2023-01-17T17:20:14.033Z,10.43
2023-01-17T17:22:50.306Z,9.65
2023-01-17T17:25:17.382Z,7.40
2023-01-17T17:27:43.877Z,11.50
2023-01-17T17:30:11.132Z,5.57
2023-01-17T17:32:37.591Z,6.88
2023-01-17T17:35:04.510Z,8.13
2023-01-17T17:37:33.252Z,9.82
2023-01-17T17:39:59.735Z,9.40
2023-01-17T17:42:26.271Z,6.97
2023-01-17T17:44:52.760Z,6.60
2023-01-17T17:47:19.378Z,9.05
2023-01-17T17:49:46.952Z,7.05
2023-01-17T17:52:13.435Z,9.45
2023-01-17T17:54:42.085Z,8.43
2023-01-17T17:57:09.387Z,14.40
2023-01-17T17:59:35.847Z,9.00
2023-01-17T18:02:02.358Z,9.05
2023-01-17T18:04:28.890Z,7.88
2023-01-17T18:06:57.326Z,9.95
2023-01-17T18:09:24.542Z,13.25
2023-01-17T18:11:50.985Z,12.05
2023-01-17T18:14:20.846Z,10.18
2023-01-17T18:16:47.823Z,17.73
2023-01-17T18:19:17.569Z,11.57
2023-01-17T18:21:44.308Z,8.35
2023-01-17T18:24:14.173Z,10.02
2023-01-17T18:26:45.119Z,9.93
2023-01-17T18:29:16.421Z,15.35
2023-01-17T18:34:13.118Z,23.23
2023-01-17T18:36:39.704Z,14.55
2023-01-17T18:39:27.257Z,29.48
2023-01-17T18:41:54.543Z,29.13
2023-01-17T18:44:23.207Z,29.58
2023-01-17T18:46:59.175Z,21.27
2023-01-17T18:49:25.562Z,27.00
2023-01-17T18:51:52.001Z,23.17
2023-01-17T18:54:19.919Z,34.90
2023-01-17T18:56:46.835Z,38.35
2023-01-17T18:59:14.185Z,45.65
2023-01-17T19:01:44.561Z,52.03
2023-01-17T19:04:13.899Z,33.63
2023-01-17T19:06:42.864Z,30.20
2023-01-17T19:09:11.359Z,19.42
2023-01-17T19:11:38.045Z,19.48
2023-01-17T19:14:05.787Z,14.70
2023-01-17T19:16:35.918Z,15.07
2023-01-17T19:19:08.195Z,16.92
2023-01-17T19:21:35.179Z,14.45
2023-01-17T19:24:02.436Z,15.30
2023-01-17T19:26:29.104Z,11.90
2023-01-17T19:28:58.654Z,13.32
2023-01-17T19:31:28.217Z,11.27
2023-01-17T19:33:59.643Z,10.38
2023-01-17T19:39:04.019Z,13.07
2023-01-17T19:41:31.855Z,9.35
2023-01-17T19:44:00.470Z,9.02
2023-01-17T19:46:27.832Z,10.43
2023-01-17T19:48:55.891Z,9.20
2023-01-17T19:51:22.975Z,11.32
2023-01-17T19:53:49.380Z,12.43
2023-01-17T19:56:21.650Z,15.10
2023-01-17T19:58:48.356Z,15.30
2023-01-17T20:01:16.263Z,13.55
2023-01-17T20:03:44.273Z,18.92
2023-01-17T20:06:15.048Z,10.32
2023-01-17T20:08:41.551Z,11.20
2023-01-17T20:11:11.444Z,11.43
2023-01-17T20:13:37.905Z,10.98
2023-01-17T20:16:06.240Z,12.43
2023-01-17T20:18:34.291Z,9.25
2023-01-17T20:21:08.090Z,9.90
2023-01-17T20:23:39.208Z,12.95
2023-01-17T20:26:06.269Z,12.75
2023-01-17T20:28:34.915Z,11.75
2023-01-17T20:31:09.531Z,9.53
2023-01-17T20:33:36.525Z,14.95
2023-01-17T20:36:10.715Z,13.05
2023-01-17T20:38:44.628Z,11.60
2023-01-17T20:41:22.511Z,16.73
2023-01-17T20:43:51.444Z,14.85
2023-01-17T20:46:19.089Z,10.00
2023-01-17T20:48:47.543Z,11.93
2023-01-17T20:51:15.110Z,12.45
2023-01-17T20:53:43.568Z,14.23
2023-01-17T20:56:14.451Z,10.40
2023-01-17T20:58:41.293Z,17.88
2023-01-17T21:01:10.733Z,15.80
2023-01-17T21:03:38.211Z,14.00
2023-01-17T21:06:10.442Z,12.48
2023-01-17T21:08:38.982Z,12.05
2023-01-17T21:11:06.492Z,14.82
2023-01-17T21:13:33.139Z,10.52
2023-01-17T21:16:00.053Z,12.27
2023-01-17T21:18:29.422Z,11.95
2023-01-17T21:21:05.686Z,11.10
2023-01-17T21:23:32.208Z,13.68
2023-01-17T21:25:58.563Z,16.27
2023-01-17T21:28:26.894Z,11.07
2023-01-17T21:30:53.805Z,10.68
2023-01-17T21:33:22.086Z,12.95
2023-01-17T21:35:48.801Z,9.57
2023-01-17T21:38:15.534Z,12.98
2023-01-17T21:40:43.597Z,10.80
2023-01-17T21:43:10.392Z,11.93
2023-01-17T21:45:41.073Z,11.55
2023-01-17T21:48:12.196Z,10.13
2023-01-17T21:50:39.001Z,11.10
2023-01-17T21:53:05.433Z,11.45
2023-01-17T21:55:50.282Z,10.00
2023-01-17T21:58:36.016Z,11.57
2023-01-17T22:01:17.772Z,10.85
2023-01-17T22:03:48.447Z,14.52
2023-01-17T22:06:14.878Z,11.63
2023-01-17T22:08:41.256Z,10.77
2023-01-17T22:11:13.106Z,13.25
2023-01-17T22:13:41.378Z,12.95
2023-01-17T22:16:10.825Z,11.18
2023-01-17T22:18:39.038Z,12.43
2023-01-17T22:21:14.069Z,12.23
2023-01-17T22:23:45.653Z,11.68
2023-01-17T22:26:15.171Z,14.05
2023-01-17T22:28:41.747Z,14.02
2023-01-17T22:31:23.331Z,12.75
2023-01-17T22:33:55.568Z,14.52
2023-01-17T22:36:22.955Z,11.60
2023-01-17T22:38:49.859Z,13.18
2023-01-17T22:41:21.616Z,12.25
2023-01-17T22:43:51.001Z,12.63
2023-01-17T22:46:26.817Z,12.70
2023-01-17T22:48:55.463Z,13.23
2023-01-17T22:51:23.826Z,11.88
2023-01-17T22:53:52.734Z,13.73
2023-01-17T22:56:21.404Z,10.95
2023-01-17T22:58:50.954Z,14.23
2023-01-17T23:01:26.091Z,10.30
2023-01-17T23:03:58.401Z,11.93
2023-01-17T23:06:35.944Z,11.55
2023-01-17T23:09:06.193Z,14.82
2023-01-17T23:11:41.037Z,10.50
2023-01-17T23:14:07.677Z,12.30
2023-01-17T23:16:52.705Z,12.75
2023-01-17T23:19:22.204Z,11.18
2023-01-17T23:22:12.796Z,12.32
2023-01-17T23:24:45.298Z,13.82
2023-01-17T23:27:33.439Z,12.35
2023-01-17T23:30:00.350Z,10.68
2023-01-17T23:32:27.479Z,10.70
2023-01-17T23:34:54.259Z,10.57
2023-01-17T23:37:20.690Z,12.63
2023-01-17T23:39:47.244Z,12.13
2023-01-17T23:42:31.989Z,15.20
2023-01-17T23:44:58.451Z,14.48
2023-01-17T23:47:24.935Z,9.80
2023-01-17T23:49:51.518Z,13.57
2023-01-17T23:52:17.938Z,12.25
2023-01-17T23:54:44.310Z,11.68
2023-01-17T23:57:10.770Z,11.05
2023-01-17T23:59:37.213Z,13.40
